createdAt,value
2017-08-06T00:01:56.513Z,8.70
2017-08-06T00:04:25.376Z,8.50
2017-08-06T00:06:54.274Z,9.10
2017-08-06T00:09:23.178Z,8.77
2017-08-06T00:11:52.086Z,8.68
2017-08-06T00:14:20.981Z,7.97
2017-08-06T00:16:49.882Z,8.60
2017-08-06T00:19:18.774Z,7.80
2017-08-06T00:21:47.663Z,8.95
2017-08-06T00:24:16.567Z,8.63
2017-08-06T00:26:45.448Z,7.37
2017-08-06T00:29:14.351Z,7.25
2017-08-06T00:31:43.237Z,6.68
2017-08-06T00:34:12.173Z,6.82
2017-08-06T00:36:41.066Z,8.45
2017-08-06T00:39:09.952Z,8.50
2017-08-06T00:41:38.843Z,8.05
2017-08-06T00:44:07.734Z,7.45
2017-08-06T00:46:36.633Z,7.75
2017-08-06T00:49:05.526Z,8.80
2017-08-06T00:51:34.391Z,8.30
2017-08-06T00:54:04.046Z,7.60
2017-08-06T00:56:32.936Z,9.52
2017-08-06T00:59:01.810Z,7.60
2017-08-06T01:01:30.682Z,6.72
2017-08-06T01:03:59.563Z,7.45
2017-08-06T01:06:28.457Z,7.85
2017-08-06T01:08:57.354Z,7.70
2017-08-06T01:11:26.254Z,7.60
2017-08-06T01:13:55.150Z,8.25
2017-08-06T01:16:24.046Z,7.35
2017-08-06T01:18:52.929Z,8.05
2017-08-06T01:21:21.820Z,7.07
2017-08-06T01:23:50.720Z,7.45
2017-08-06T01:26:19.608Z,8.98
2017-08-06T01:28:48.609Z,7.37
2017-08-06T01:31:17.514Z,7.57
2017-08-06T01:33:46.060Z,8.20
2017-08-06T01:36:14.954Z,8.50
2017-08-06T01:38:43.864Z,7.75
2017-08-06T01:41:12.755Z,7.57
2017-08-06T01:43:41.650Z,8.20
2017-08-06T01:46:09.844Z,7.78
2017-08-06T01:48:39.102Z,7.50
2017-08-06T01:51:08.009Z,7.95
2017-08-06T01:53:36.878Z,7.55
2017-08-06T01:56:06.527Z,6.60
2017-08-06T01:58:35.417Z,6.22
2017-08-06T02:01:03.979Z,7.05
2017-08-06T02:03:32.857Z,6.97
2017-08-06T02:06:02.525Z,8.75
2017-08-06T02:08:31.442Z,7.70
2017-08-06T02:11:00.342Z,9.27
2017-08-06T02:13:30.014Z,9.27
2017-08-06T02:15:58.916Z,9.40
2017-08-06T02:18:27.776Z,8.05
2017-08-06T02:20:56.665Z,9.55
2017-08-06T02:23:25.582Z,11.60
2017-08-06T02:25:54.494Z,16.87
2017-08-06T02:28:23.390Z,15.32
2017-08-06T02:30:52.289Z,13.95
2017-08-06T02:33:21.954Z,16.73
2017-08-06T02:35:50.864Z,16.70
2017-08-06T02:38:19.756Z,16.73
2017-08-06T02:40:48.666Z,17.50
2017-08-06T02:43:17.529Z,16.75
2017-08-06T02:45:46.293Z,15.25
2017-08-06T02:48:15.194Z,16.12
2017-08-06T02:50:44.092Z,17.52
2017-08-06T02:53:13.005Z,18.50
2017-08-06T02:55:41.907Z,17.85
2017-08-06T02:58:10.817Z,18.15
2017-08-06T03:00:39.748Z,16.30
2017-08-06T03:03:08.654Z,18.33
2017-08-06T03:05:37.548Z,17.75
2017-08-06T03:08:06.462Z,15.13
2017-08-06T03:10:35.372Z,12.95
2017-08-06T03:13:05.044Z,12.25
2017-08-06T03:15:33.954Z,12.18
2017-08-06T03:18:02.848Z,10.70
2017-08-06T03:20:31.741Z,10.50
2017-08-06T03:23:00.637Z,10.70
2017-08-06T03:25:29.525Z,9.75
2017-08-06T03:27:58.392Z,9.68
2017-08-06T03:30:27.289Z,9.43
2017-08-06T03:32:56.195Z,9.05
2017-08-06T03:35:25.096Z,8.25
2017-08-06T03:37:53.988Z,8.95
2017-08-06T03:40:22.874Z,8.45
2017-08-06T03:42:51.760Z,9.50
2017-08-06T03:45:20.667Z,8.30
2017-08-06T03:47:49.557Z,8.77
2017-08-06T03:50:18.445Z,9.77
2017-08-06T03:52:47.347Z,9.20
2017-08-06T03:55:17.009Z,10.00
2017-08-06T03:57:45.900Z,10.25
2017-08-06T04:00:14.814Z,10.65
2017-08-06T04:02:43.717Z,11.80
2017-08-06T04:05:12.626Z,9.88
2017-08-06T04:07:42.302Z,11.40
2017-08-06T04:10:11.210Z,10.15
2017-08-06T04:12:40.123Z,10.75
2017-08-06T04:15:09.768Z,10.82
2017-08-06T04:17:38.670Z,11.10
2017-08-06T04:20:07.521Z,9.50
2017-08-06T04:22:37.183Z,9.90
2017-08-06T04:25:06.072Z,9.93
2017-08-06T04:27:34.976Z,10.25
2017-08-06T04:30:03.532Z,10.68
2017-08-06T04:32:32.440Z,10.05
2017-08-06T04:35:01.334Z,11.60
2017-08-06T04:37:30.251Z,10.77
2017-08-06T04:39:59.112Z,10.60
2017-08-06T04:42:28.012Z,10.43
2017-08-06T04:44:56.924Z,8.98
2017-08-06T04:47:25.818Z,9.70
2017-08-06T04:49:54.709Z,9.55
2017-08-06T04:52:23.606Z,8.82
2017-08-06T04:54:52.493Z,8.13
2017-08-06T04:57:21.395Z,7.93
2017-08-06T04:59:50.291Z,7.95
2017-08-06T05:02:19.190Z,8.45
2017-08-06T05:04:48.859Z,7.75
2017-08-06T05:07:17.740Z,7.90
2017-08-06T05:09:46.633Z,7.82
2017-08-06T05:12:15.496Z,8.60
2017-08-06T05:14:44.396Z,7.05
2017-08-06T05:17:13.294Z,8.98
2017-08-06T05:19:42.149Z,7.30
2017-08-06T05:22:10.994Z,7.30
2017-08-06T05:24:39.858Z,9.23
2017-08-06T05:27:08.745Z,8.65
2017-08-06T05:29:37.611Z,8.27
2017-08-06T05:32:06.506Z,7.20
2017-08-06T05:34:35.398Z,9.10
2017-08-06T05:37:05.142Z,7.25
2017-08-06T05:39:34.045Z,7.32
2017-08-06T05:42:02.947Z,8.07
2017-08-06T05:44:31.845Z,8.15
2017-08-06T05:47:00.755Z,7.93
2017-08-06T05:49:37.139Z,7.70
2017-08-06T05:52:06.026Z,6.53
2017-08-06T05:54:34.921Z,8.50
2017-08-06T05:57:04.606Z,9.80
2017-08-06T05:59:33.514Z,9.55
2017-08-06T06:02:02.418Z,9.82
2017-08-06T06:04:32.088Z,10.07
2017-08-06T06:07:00.996Z,10.30
2017-08-06T06:09:29.884Z,9.38
2017-08-06T06:11:58.792Z,9.25
2017-08-06T06:14:27.693Z,10.98
2017-08-06T06:16:57.361Z,11.82
2017-08-06T06:19:26.265Z,10.15
2017-08-06T06:21:55.980Z,10.18
2017-08-06T06:36:04.830Z,5.50
2017-08-06T06:47:03.606Z,4.00
2017-08-06T06:49:46.180Z,3.97
2017-08-06T06:52:33.321Z,4.22
2017-08-06T07:01:03.098Z,4.87
2017-08-06T07:03:35.450Z,5.35
2017-08-06T07:06:04.802Z,5.07
2017-08-06T07:08:34.848Z,5.40
2017-08-06T07:11:03.730Z,5.10
2017-08-06T07:13:32.637Z,4.60
2017-08-06T07:16:01.529Z,5.70
2017-08-06T07:18:30.455Z,4.95
2017-08-06T07:20:59.341Z,4.82
2017-08-06T07:23:28.216Z,4.72
2017-08-06T07:25:57.876Z,5.47
2017-08-06T07:28:26.769Z,5.65
2017-08-06T07:30:55.662Z,6.47
2017-08-06T07:33:24.559Z,5.70
2017-08-06T07:35:53.265Z,5.78
2017-08-06T07:38:22.142Z,6.03
2017-08-06T07:40:51.052Z,6.82
2017-08-06T07:43:19.950Z,4.80
2017-08-06T07:45:49.608Z,4.80
2017-08-06T07:48:18.500Z,5.37
2017-08-06T07:50:47.418Z,6.00
2017-08-06T07:53:16.319Z,6.25
2017-08-06T07:55:45.194Z,5.87
2017-08-06T07:58:14.087Z,5.40
2017-08-06T08:00:42.978Z,4.10
2017-08-06T08:03:11.869Z,5.82
2017-08-06T08:05:40.731Z,5.05
2017-08-06T08:08:09.633Z,5.10
2017-08-06T08:10:38.532Z,4.53
2017-08-06T08:13:07.418Z,4.30
2017-08-06T08:15:36.318Z,5.45
2017-08-06T08:18:04.878Z,5.85
2017-08-06T08:20:33.766Z,5.00
2017-08-06T08:23:02.646Z,4.75
2017-08-06T08:25:31.505Z,4.75
2017-08-06T08:28:00.403Z,4.43
2017-08-06T08:30:29.948Z,3.92
2017-08-06T08:32:58.863Z,3.70
2017-08-06T08:35:27.755Z,3.85
2017-08-06T08:37:57.346Z,3.67
2017-08-06T08:40:27.122Z,4.62
2017-08-06T08:42:57.669Z,4.78
2017-08-06T08:45:27.324Z,4.65
2017-08-06T08:47:56.223Z,4.60
2017-08-06T08:50:25.110Z,3.62
2017-08-06T08:52:54.006Z,3.78
2017-08-06T08:55:22.906Z,3.17
2017-08-06T08:57:51.799Z,3.10
2017-08-06T09:00:20.680Z,3.30
2017-08-06T09:02:49.570Z,3.50
2017-08-06T09:05:18.482Z,3.60
2017-08-06T09:07:47.365Z,3.70
2017-08-06T09:10:16.209Z,3.15
2017-08-06T09:12:45.094Z,3.03
2017-08-06T09:15:14.913Z,2.53
2017-08-06T09:17:43.819Z,3.22
2017-08-06T09:20:12.713Z,2.92
2017-08-06T09:22:41.623Z,2.70
2017-08-06T09:25:10.528Z,2.85
2017-08-06T09:27:39.415Z,3.28
2017-08-06T09:30:08.310Z,2.58
2017-08-06T09:32:37.188Z,3.42
2017-08-06T09:35:06.055Z,2.62
2017-08-06T09:37:34.948Z,3.35
2017-08-06T09:40:03.839Z,2.87
2017-08-06T09:42:32.720Z,2.85
2017-08-06T09:45:01.610Z,2.35
2017-08-06T09:47:30.489Z,3.53
2017-08-06T09:49:59.391Z,3.65
2017-08-06T09:52:28.278Z,3.25
2017-08-06T09:54:57.911Z,3.30
2017-08-06T09:57:26.773Z,3.35
2017-08-06T09:59:56.438Z,3.42
2017-08-06T10:02:25.312Z,3.00
2017-08-06T10:04:54.194Z,3.50
2017-08-06T10:07:23.338Z,2.95
2017-08-06T10:09:52.225Z,2.65
2017-08-06T10:12:21.097Z,2.85
2017-08-06T10:14:49.980Z,3.47
2017-08-06T10:17:18.831Z,3.20
2017-08-06T10:19:47.713Z,3.20
2017-08-06T10:22:17.328Z,2.75
2017-08-06T10:24:46.226Z,3.30
2017-08-06T10:27:15.112Z,2.92
2017-08-06T10:29:44.010Z,3.30
2017-08-06T10:32:12.867Z,3.45
2017-08-06T10:34:41.758Z,4.10
2017-08-06T10:37:10.649Z,3.00
2017-08-06T10:39:39.533Z,3.00
2017-08-06T10:42:08.396Z,3.55
2017-08-06T10:44:37.287Z,3.35
2017-08-06T10:47:06.182Z,3.60
2017-08-06T10:49:35.155Z,3.67
2017-08-06T10:52:04.031Z,3.33
2017-08-06T10:54:33.693Z,4.57
2017-08-06T10:57:02.584Z,4.05
2017-08-06T10:59:31.472Z,3.75
2017-08-06T11:02:00.334Z,3.65
2017-08-06T11:04:29.224Z,3.78
2017-08-06T11:06:58.089Z,3.35
2017-08-06T11:09:27.729Z,3.37
2017-08-06T11:11:56.571Z,4.18
2017-08-06T11:14:26.208Z,2.97
2017-08-06T11:16:55.110Z,3.42
2017-08-06T11:19:24.011Z,3.03
2017-08-06T11:21:52.863Z,3.35
2017-08-06T11:24:22.511Z,3.70
2017-08-06T11:26:51.403Z,3.20
2017-08-06T11:29:20.252Z,4.00
2017-08-06T11:31:49.901Z,3.25
2017-08-06T11:34:18.783Z,3.35
2017-08-06T11:36:47.678Z,3.20
2017-08-06T11:39:16.570Z,3.50
2017-08-06T11:41:45.460Z,3.40
2017-08-06T11:44:14.341Z,3.20
2017-08-06T11:46:43.247Z,3.47
2017-08-06T11:49:12.150Z,2.90
2017-08-06T11:51:41.032Z,3.22
2017-08-06T11:54:09.921Z,2.97
2017-08-06T11:56:38.810Z,6.80
2017-08-06T11:59:07.661Z,3.10
2017-08-06T12:01:36.549Z,2.65
2017-08-06T12:04:05.446Z,2.95
2017-08-06T12:06:34.334Z,2.85
2017-08-06T12:09:03.231Z,2.90
2017-08-06T12:11:32.117Z,2.80
2017-08-06T12:14:01.010Z,3.15
2017-08-06T12:16:29.908Z,2.55
2017-08-06T12:18:58.823Z,2.87
2017-08-06T12:21:27.717Z,2.90
2017-08-06T12:23:57.891Z,2.78
2017-08-06T12:26:26.772Z,2.87
2017-08-06T12:28:55.676Z,3.05
2017-08-06T12:31:24.557Z,3.05
2017-08-06T12:33:53.458Z,2.30
2017-08-06T12:36:22.350Z,2.65
2017-08-06T12:38:51.229Z,3.22
2017-08-06T12:41:20.134Z,2.58
2017-08-06T12:43:49.017Z,2.58
2017-08-06T12:46:17.872Z,3.10
2017-08-06T12:48:46.756Z,3.15
2017-08-06T12:51:15.617Z,2.58
2017-08-06T12:53:44.498Z,3.20
2017-08-06T12:56:13.346Z,2.80
2017-08-06T12:58:42.238Z,3.20
2017-08-06T13:01:11.130Z,2.85
2017-08-06T13:03:39.978Z,3.10
2017-08-06T13:06:09.642Z,2.83
2017-08-06T13:08:38.548Z,2.67
2017-08-06T13:11:07.447Z,2.87
2017-08-06T13:13:36.304Z,2.50
2017-08-06T13:16:05.171Z,3.20
2017-08-06T13:18:34.838Z,2.80
2017-08-06T13:21:03.699Z,2.55
2017-08-06T13:23:32.600Z,2.55
2017-08-06T13:26:01.500Z,3.25
2017-08-06T13:28:30.385Z,2.65
2017-08-06T13:30:59.294Z,2.47
2017-08-06T13:33:28.183Z,2.60
2017-08-06T13:35:57.565Z,2.90
2017-08-06T13:38:26.458Z,3.00
2017-08-06T13:40:55.366Z,2.25
2017-08-06T13:43:24.272Z,2.45
2017-08-06T13:45:53.160Z,2.50
2017-08-06T13:48:22.028Z,2.70
2017-08-06T13:50:50.934Z,1.92
2017-08-06T13:53:19.827Z,2.30
2017-08-06T13:55:48.727Z,2.15
2017-08-06T13:58:17.618Z,2.72
2017-08-06T14:00:46.509Z,2.20
2017-08-06T14:03:15.394Z,2.08
2017-08-06T14:05:44.288Z,2.75
2017-08-06T14:08:13.199Z,2.58
2017-08-06T14:10:42.095Z,1.77
2017-08-06T14:13:10.953Z,2.50
2017-08-06T14:15:39.815Z,2.58
2017-08-06T14:18:08.713Z,2.30
2017-08-06T14:20:38.216Z,2.62
2017-08-06T14:23:07.122Z,2.60
2017-08-06T14:25:36.029Z,2.45
2017-08-06T14:28:04.940Z,2.65
2017-08-06T14:30:33.502Z,2.20
2017-08-06T14:33:02.418Z,2.10
2017-08-06T14:35:31.313Z,2.55
2017-08-06T14:38:00.207Z,2.12
2017-08-06T14:40:29.831Z,2.75
2017-08-06T14:42:59.489Z,2.78
2017-08-06T14:45:28.394Z,3.10
2017-08-06T14:47:57.282Z,2.60
2017-08-06T14:50:26.185Z,2.45
2017-08-06T14:52:55.086Z,2.40
2017-08-06T14:55:23.986Z,2.62
2017-08-06T14:57:52.886Z,2.30
2017-08-06T15:00:21.777Z,3.30
2017-08-06T15:02:50.685Z,2.47
2017-08-06T15:05:20.342Z,2.60
2017-08-06T15:07:49.208Z,3.00
2017-08-06T15:10:18.060Z,2.75
2017-08-06T15:12:47.743Z,2.60
2017-08-06T15:15:16.639Z,2.30
2017-08-06T15:17:45.529Z,2.37
2017-08-06T15:20:14.421Z,2.70
2017-08-06T15:22:43.280Z,2.30
2017-08-06T15:25:12.175Z,2.47
2017-08-06T15:27:41.066Z,2.50
2017-08-06T15:30:09.948Z,2.22
2017-08-06T15:32:38.812Z,2.55
2017-08-06T15:35:08.472Z,2.75
2017-08-06T15:37:37.380Z,2.15
2017-08-06T15:40:06.241Z,2.55
2017-08-06T15:42:35.133Z,2.00
2017-08-06T15:45:04.026Z,2.47
2017-08-06T15:47:32.909Z,2.15
2017-08-06T15:50:01.809Z,2.05
2017-08-06T15:52:30.741Z,2.03
2017-08-06T15:55:00.123Z,2.70
2017-08-06T15:57:29.010Z,2.47
2017-08-06T15:59:57.905Z,2.15
2017-08-06T16:02:26.809Z,2.47
2017-08-06T16:04:55.701Z,2.05
2017-08-06T16:07:24.588Z,2.50
2017-08-06T16:09:53.483Z,2.50
2017-08-06T16:12:22.424Z,2.65
2017-08-06T16:14:51.319Z,2.37
2017-08-06T16:17:20.221Z,2.45
2017-08-06T16:19:49.110Z,2.30
2017-08-06T16:22:17.993Z,2.60
2017-08-06T16:24:46.887Z,1.87
2017-08-06T16:27:15.784Z,1.80
2017-08-06T16:29:44.668Z,2.10
2017-08-06T16:32:13.568Z,1.95
2017-08-06T16:34:42.467Z,2.97
2017-08-06T16:37:11.352Z,2.30
2017-08-06T16:39:40.243Z,2.03
2017-08-06T16:42:09.136Z,2.30
2017-08-06T16:44:38.131Z,2.45
2017-08-06T16:47:07.021Z,2.17
2017-08-06T16:49:35.935Z,2.40
2017-08-06T16:52:04.841Z,2.05
2017-08-06T16:54:33.691Z,1.98
2017-08-06T16:57:02.584Z,2.60
2017-08-06T16:59:31.486Z,2.20
2017-08-06T17:02:00.701Z,1.90
2017-08-06T17:04:29.592Z,2.25
2017-08-06T17:06:58.485Z,1.67
2017-08-06T17:09:27.374Z,1.90
2017-08-06T17:11:56.317Z,1.60
2017-08-06T17:14:25.984Z,2.00
2017-08-06T17:16:54.874Z,2.08
2017-08-06T17:19:23.783Z,1.70
2017-08-06T17:21:52.686Z,2.15
2017-08-06T17:24:21.564Z,1.95
2017-08-06T17:26:50.449Z,1.90
2017-08-06T17:29:19.337Z,2.70
2017-08-06T17:31:48.221Z,2.08
2017-08-06T17:34:18.585Z,2.10
2017-08-06T17:36:47.465Z,3.00
2017-08-06T17:39:16.362Z,2.10
2017-08-06T17:41:45.267Z,2.37
2017-08-06T17:44:14.932Z,2.65
2017-08-06T17:46:43.843Z,1.95
2017-08-06T17:49:12.731Z,2.00
2017-08-06T17:51:41.587Z,1.80
2017-08-06T17:54:10.484Z,1.95
2017-08-06T17:56:39.386Z,1.85
2017-08-06T17:59:08.282Z,1.40
2017-08-06T18:01:37.160Z,1.50
2017-08-06T18:04:06.907Z,2.20
2017-08-06T18:06:35.796Z,1.77
2017-08-06T18:09:04.777Z,1.65
2017-08-06T18:11:33.876Z,2.00
2017-08-06T18:14:02.976Z,2.05
2017-08-06T18:16:32.156Z,1.65
2017-08-06T18:19:01.375Z,1.90
2017-08-06T18:21:30.514Z,1.70
2017-08-06T18:23:59.604Z,1.40
2017-08-06T18:26:29.557Z,1.48
2017-08-06T18:28:58.884Z,1.50
2017-08-06T18:31:28.136Z,1.40
2017-08-06T18:33:58.001Z,1.75
2017-08-06T18:36:27.647Z,1.40
2017-08-06T18:38:57.548Z,1.77
2017-08-06T18:41:26.774Z,1.85
2017-08-06T18:43:56.690Z,1.70
2017-08-06T18:46:25.728Z,1.50
2017-08-06T18:48:55.240Z,2.12
2017-08-06T18:51:24.272Z,3.00
2017-08-06T18:53:53.921Z,3.33
2017-08-06T18:56:22.825Z,3.00
2017-08-06T18:58:51.722Z,2.67
2017-08-06T19:01:20.627Z,2.12
2017-08-06T19:03:49.527Z,3.53
2017-08-06T19:06:18.418Z,4.00
2017-08-06T19:08:47.321Z,2.70
2017-08-06T19:11:16.990Z,2.72
2017-08-06T19:13:45.892Z,2.58
2017-08-06T19:16:14.794Z,2.40
2017-08-06T19:18:43.705Z,2.28
2017-08-06T19:21:12.594Z,2.70
2017-08-06T19:23:41.490Z,2.40
2017-08-06T19:26:10.386Z,2.53
2017-08-06T19:28:39.271Z,2.30
2017-08-06T19:31:08.162Z,2.45
2017-08-06T19:33:37.049Z,2.15
2017-08-06T19:36:05.932Z,2.33
2017-08-06T19:38:34.840Z,2.50
2017-08-06T19:41:03.750Z,2.45
2017-08-06T19:43:33.379Z,2.55
2017-08-06T19:46:02.090Z,2.20
2017-08-06T19:48:30.931Z,3.55
2017-08-06T19:51:00.563Z,2.70
2017-08-06T19:53:29.276Z,1.92
2017-08-06T19:55:58.171Z,3.03
2017-08-06T19:58:27.061Z,3.30
2017-08-06T20:00:55.953Z,2.20
2017-08-06T20:03:24.851Z,2.22
2017-08-06T20:05:53.705Z,2.28
2017-08-06T20:08:22.608Z,2.30
2017-08-06T20:10:51.516Z,2.15
2017-08-06T20:13:20.488Z,2.15
2017-08-06T20:15:49.383Z,2.17
2017-08-06T20:18:18.281Z,2.60
2017-08-06T20:20:47.986Z,2.30
2017-08-06T20:23:16.968Z,2.83
2017-08-06T20:25:45.851Z,2.35
2017-08-06T20:28:15.527Z,2.50
2017-08-06T20:30:44.409Z,3.05
2017-08-06T20:33:13.306Z,2.90
2017-08-06T20:35:42.197Z,3.70
2017-08-06T20:38:11.083Z,3.17
2017-08-06T20:40:39.693Z,2.92
2017-08-06T20:43:08.573Z,3.20
2017-08-06T20:45:37.463Z,3.20
2017-08-06T20:48:07.148Z,3.00
2017-08-06T20:50:36.032Z,2.45
2017-08-06T20:53:04.926Z,2.40
2017-08-06T20:55:33.809Z,2.72
2017-08-06T20:58:02.690Z,3.28
2017-08-06T21:00:31.573Z,2.97
2017-08-06T21:03:00.452Z,2.62
2017-08-06T21:05:30.093Z,3.85
2017-08-06T21:07:58.969Z,3.53
2017-08-06T21:10:27.860Z,4.10
2017-08-06T21:12:56.754Z,3.37
2017-08-06T21:15:25.646Z,3.78
2017-08-06T21:17:55.248Z,3.35
2017-08-06T21:20:24.853Z,3.85
2017-08-06T21:22:54.498Z,3.92
2017-08-06T21:25:23.381Z,3.67
2017-08-06T21:27:52.241Z,2.92
2017-08-06T21:30:21.905Z,3.40
2017-08-06T21:32:50.802Z,3.25
2017-08-06T21:35:19.681Z,3.85
2017-08-06T21:37:48.590Z,3.75
2017-08-06T21:40:17.490Z,3.42
2017-08-06T21:42:46.374Z,4.12
2017-08-06T21:45:15.284Z,3.30
2017-08-06T21:47:44.165Z,3.78
2017-08-06T21:50:13.044Z,4.05
2017-08-06T21:52:41.927Z,2.90
2017-08-06T21:55:10.803Z,3.67
2017-08-06T21:57:39.684Z,3.70
2017-08-06T22:00:08.578Z,3.10
2017-08-06T22:02:37.464Z,3.50
2017-08-06T22:05:06.350Z,4.25
2017-08-06T22:07:35.224Z,4.30
2017-08-06T22:10:04.117Z,3.15
2017-08-06T22:12:33.769Z,3.47
2017-08-06T22:15:02.675Z,3.45
2017-08-06T22:17:31.568Z,3.50
2017-08-06T22:20:00.451Z,4.25
2017-08-06T22:22:29.338Z,3.70
2017-08-06T22:24:58.229Z,4.15
2017-08-06T22:27:27.119Z,4.20
2017-08-06T22:29:55.993Z,4.20
2017-08-06T22:32:24.878Z,3.85
2017-08-06T22:34:53.753Z,3.83
2017-08-06T22:37:23.421Z,4.90
2017-08-06T22:39:52.304Z,4.37
2017-08-06T22:42:21.202Z,4.90
2017-08-06T22:44:50.085Z,4.62
2017-08-06T22:47:19.050Z,5.20
2017-08-06T22:49:47.939Z,4.57
2017-08-06T22:52:16.828Z,4.80
2017-08-06T22:54:45.704Z,4.57
2017-08-06T22:57:14.580Z,4.72
2017-08-06T22:59:43.418Z,5.10
2017-08-06T23:02:12.259Z,5.82
2017-08-06T23:04:41.114Z,5.28
2017-08-06T23:07:10.002Z,4.82
2017-08-06T23:09:38.891Z,4.80
2017-08-06T23:12:07.772Z,5.00
2017-08-06T23:14:36.666Z,5.12
2017-08-06T23:17:05.544Z,4.65
2017-08-06T23:19:34.393Z,4.75
2017-08-06T23:22:03.278Z,4.55
2017-08-06T23:24:32.128Z,5.25
2017-08-06T23:27:01.012Z,4.05
2017-08-06T23:29:29.885Z,5.53
2017-08-06T23:31:59.532Z,4.15
2017-08-06T23:34:28.427Z,5.10
2017-08-06T23:36:57.305Z,4.43
2017-08-06T23:39:26.193Z,5.00
2017-08-06T23:41:55.072Z,4.00
2017-08-06T23:44:23.945Z,4.57
2017-08-06T23:46:52.825Z,3.97
2017-08-06T23:49:21.692Z,4.75
2017-08-06T23:51:50.599Z,4.55
2017-08-06T23:54:19.483Z,4.32
2017-08-06T23:56:48.370Z,4.30
2017-08-06T23:59:17.309Z,4.85
